Sparta, Virginia
Current Conditions -  °F | °C
As of 3:55 AM on Wednesday 22 Oct 2014 (Local Time) from KXSA Reporting Station
Overcast Overcast  
Wind Chill: 54°   Ceiling: 2200
Heat Index: 54°   Visibility: 10mi
Dew Point: 48°   Wind: 0mph
Humidity: 82%   Direction: NA
Pressure: 29.85"   Gusts: NA
Location:  37.99°N, 77.23°W
Report Text: KXSA 220755Z AUTO 00000KT 10SM OVC022 12/09 A2985 RMK AO2 T01200091
Loading
Personal Weather Stations






























Interactive Weather Map
Tropical Storm Tracking
New forecast layout! Learn more

10-Day Weather Forecast

Advertisements
Track Severe Weather on mobile